sensor_id;sensor_type;location;lat;lon;timestamp;P1;durP1;ratioP1;P2;durP2;ratioP2
45490;SDS011;31237;45.586;13.782;2022-12-22T00:02:03;1.50;;;1.35;;
45490;SDS011;31237;45.586;13.782;2022-12-22T00:04:54;2.25;;;2.10;;
45490;SDS011;31237;45.586;13.782;2022-12-22T00:07:39;1.52;;;1.45;;
45490;SDS011;31237;45.586;13.782;2022-12-22T00:10:23;2.08;;;1.90;;
45490;SDS011;31237;45.586;13.782;2022-12-22T00:13:09;3.35;;;2.63;;
45490;SDS011;31237;45.586;13.782;2022-12-22T00:15:55;2.65;;;1.98;;
45490;SDS011;31237;45.586;13.782;2022-12-22T00:18:40;1.83;;;1.73;;
45490;SDS011;31237;45.586;13.782;2022-12-22T00:21:25;3.33;;;1.70;;
45490;SDS011;31237;45.586;13.782;2022-12-22T00:24:12;1.55;;;1.45;;
45490;SDS011;31237;45.586;13.782;2022-12-22T00:26:56;1.40;;;1.30;;
45490;SDS011;31237;45.586;13.782;2022-12-22T00:29:40;1.73;;;1.63;;
45490;SDS011;31237;45.586;13.782;2022-12-22T00:32:33;1.23;;;1.13;;
45490;SDS011;31237;45.586;13.782;2022-12-22T00:35:21;0.83;;;0.83;;
45490;SDS011;31237;45.586;13.782;2022-12-22T00:38:15;1.65;;;1.55;;
45490;SDS011;31237;45.586;13.782;2022-12-22T00:41:02;0.90;;;0.90;;
45490;SDS011;31237;45.586;13.782;2022-12-22T00:43:46;0.63;;;0.63;;
45490;SDS011;31237;45.586;13.782;2022-12-22T00:46:31;1.13;;;1.10;;
45490;SDS011;31237;45.586;13.782;2022-12-22T00:49:17;0.65;;;0.65;;
45490;SDS011;31237;45.586;13.782;2022-12-22T00:52:02;0.70;;;0.70;;
45490;SDS011;31237;45.586;13.782;2022-12-22T00:57:33;1.45;;;1.35;;
45490;SDS011;31237;45.586;13.782;2022-12-22T01:00:18;0.50;;;0.50;;
45490;SDS011;31237;45.586;13.782;2022-12-22T01:03:02;0.73;;;0.73;;
45490;SDS011;31237;45.586;13.782;2022-12-22T01:05:46;0.90;;;0.90;;
45490;SDS011;31237;45.586;13.782;2022-12-22T01:11:16;0.50;;;0.50;;
45490;SDS011;31237;45.586;13.782;2022-12-22T01:16:45;0.57;;;0.57;;
45490;SDS011;31237;45.586;13.782;2022-12-22T01:19:29;2.72;;;0.93;;
45490;SDS011;31237;45.586;13.782;2022-12-22T01:25:00;1.50;;;1.42;;
45490;SDS011;31237;45.586;13.782;2022-12-22T01:30:28;0.70;;;0.70;;
45490;SDS011;31237;45.586;13.782;2022-12-22T01:35:56;0.65;;;0.65;;
45490;SDS011;31237;45.586;13.782;2022-12-22T01:38:41;0.50;;;0.50;;
45490;SDS011;31237;45.586;13.782;2022-12-22T01:41:25;0.40;;;0.40;;
45490;SDS011;31237;45.586;13.782;2022-12-22T01:44:14;0.68;;;0.68;;
45490;SDS011;31237;45.586;13.782;2022-12-22T01:53:10;0.52;;;0.52;;
45490;SDS011;31237;45.586;13.782;2022-12-22T01:55:58;0.73;;;0.73;;
45490;SDS011;31237;45.586;13.782;2022-12-22T01:58:44;0.60;;;0.60;;
45490;SDS011;31237;45.586;13.782;2022-12-22T02:01:32;0.52;;;0.52;;
45490;SDS011;31237;45.586;13.782;2022-12-22T02:04:18;0.73;;;0.73;;
45490;SDS011;31237;45.586;13.782;2022-12-22T02:07:10;0.50;;;0.50;;
45490;SDS011;31237;45.586;13.782;2022-12-22T02:16:30;0.50;;;0.50;;
45490;SDS011;31237;45.586;13.782;2022-12-22T02:25:58;0.90;;;0.90;;
45490;SDS011;31237;45.586;13.782;2022-12-22T02:28:53;0.98;;;0.98;;
45490;SDS011;31237;45.586;13.782;2022-12-22T02:31:39;0.70;;;0.70;;
45490;SDS011;31237;45.586;13.782;2022-12-22T02:34:24;0.95;;;0.95;;
45490;SDS011;31237;45.586;13.782;2022-12-22T02:46:32;1.02;;;1.02;;
45490;SDS011;31237;45.586;13.782;2022-12-22T02:49:24;0.63;;;0.63;;
45490;SDS011;31237;45.586;13.782;2022-12-22T02:52:22;0.77;;;0.77;;
45490;SDS011;31237;45.586;13.782;2022-12-22T02:55:11;0.55;;;0.55;;
45490;SDS011;31237;45.586;13.782;2022-12-22T02:57:57;1.40;;;1.30;;
45490;SDS011;31237;45.586;13.782;2022-12-22T03:00:42;0.93;;;0.88;;
45490;SDS011;31237;45.586;13.782;2022-12-22T03:03:27;0.75;;;0.75;;
45490;SDS011;31237;45.586;13.782;2022-12-22T03:06:11;0.40;;;0.40;;
45490;SDS011;31237;45.586;13.782;2022-12-22T03:08:56;1.35;;;0.93;;
45490;SDS011;31237;45.586;13.782;2022-12-22T03:14:24;0.50;;;0.50;;
45490;SDS011;31237;45.586;13.782;2022-12-22T03:19:52;1.15;;;1.15;;
45490;SDS011;31237;45.586;13.782;2022-12-22T03:25:21;1.17;;;1.17;;
45490;SDS011;31237;45.586;13.782;2022-12-22T03:30:32;1.20;;;1.10;;
45490;SDS011;31237;45.586;13.782;2022-12-22T03:32:57;0.93;;;0.93;;
45490;SDS011;31237;45.586;13.782;2022-12-22T03:35:23;0.80;;;0.80;;
45490;SDS011;31237;45.586;13.782;2022-12-22T03:37:49;1.45;;;1.23;;
45490;SDS011;31237;45.586;13.782;2022-12-22T03:40:15;0.88;;;0.88;;
45490;SDS011;31237;45.586;13.782;2022-12-22T03:42:41;0.75;;;0.75;;
45490;SDS011;31237;45.586;13.782;2022-12-22T03:45:25;1.40;;;1.30;;
45490;SDS011;31237;45.586;13.782;2022-12-22T03:48:10;0.70;;;0.70;;
45490;SDS011;31237;45.586;13.782;2022-12-22T03:50:36;1.52;;;1.42;;
45490;SDS011;31237;45.586;13.782;2022-12-22T03:53:02;2.53;;;2.10;;
45490;SDS011;31237;45.586;13.782;2022-12-22T03:55:28;0.82;;;0.82;;
45490;SDS011;31237;45.586;13.782;2022-12-22T03:57:53;1.08;;;1.00;;
45490;SDS011;31237;45.586;13.782;2022-12-22T04:00:19;0.70;;;0.65;;
45490;SDS011;31237;45.586;13.782;2022-12-22T04:02:45;1.27;;;1.25;;
45490;SDS011;31237;45.586;13.782;2022-12-22T04:05:10;1.17;;;1.17;;
45490;SDS011;31237;45.586;13.782;2022-12-22T04:07:36;1.02;;;1.00;;
45490;SDS011;31237;45.586;13.782;2022-12-22T04:10:02;0.90;;;0.90;;
45490;SDS011;31237;45.586;13.782;2022-12-22T04:12:49;0.45;;;0.45;;
45490;SDS011;31237;45.586;13.782;2022-12-22T04:15:28;0.65;;;0.65;;
45490;SDS011;31237;45.586;13.782;2022-12-22T04:17:56;0.68;;;0.68;;
45490;SDS011;31237;45.586;13.782;2022-12-22T04:20:23;0.50;;;0.50;;
45490;SDS011;31237;45.586;13.782;2022-12-22T04:22:52;0.50;;;0.50;;
45490;SDS011;31237;45.586;13.782;2022-12-22T04:25:19;2.15;;;1.40;;
45490;SDS011;31237;45.586;13.782;2022-12-22T04:27:45;0.95;;;0.95;;
45490;SDS011;31237;45.586;13.782;2022-12-22T04:30:11;0.93;;;0.93;;
45490;SDS011;31237;45.586;13.782;2022-12-22T04:32:37;2.90;;;1.17;;
45490;SDS011;31237;45.586;13.782;2022-12-22T04:35:04;0.70;;;0.70;;
45490;SDS011;31237;45.586;13.782;2022-12-22T04:37:30;1.67;;;1.60;;
45490;SDS011;31237;45.586;13.782;2022-12-22T04:39:56;1.20;;;1.10;;
45490;SDS011;31237;45.586;13.782;2022-12-22T04:42:21;1.10;;;1.02;;
45490;SDS011;31237;45.586;13.782;2022-12-22T04:44:48;6.28;;;2.00;;
45490;SDS011;31237;45.586;13.782;2022-12-22T04:47:14;1.45;;;1.35;;
45490;SDS011;31237;45.586;13.782;2022-12-22T04:49:39;2.28;;;2.08;;
45490;SDS011;31237;45.586;13.782;2022-12-22T04:52:05;0.82;;;0.82;;
45490;SDS011;31237;45.586;13.782;2022-12-22T04:54:31;0.82;;;0.82;;
45490;SDS011;31237;45.586;13.782;2022-12-22T04:56:57;2.15;;;1.58;;
45490;SDS011;31237;45.586;13.782;2022-12-22T04:59:22;0.95;;;0.95;;
45490;SDS011;31237;45.586;13.782;2022-12-22T05:01:48;0.60;;;0.60;;
45490;SDS011;31237;45.586;13.782;2022-12-22T05:04:14;1.63;;;1.52;;
45490;SDS011;31237;45.586;13.782;2022-12-22T05:06:40;1.02;;;1.02;;
45490;SDS011;31237;45.586;13.782;2022-12-22T05:09:05;1.15;;;1.05;;
45490;SDS011;31237;45.586;13.782;2022-12-22T05:11:31;1.35;;;1.25;;
45490;SDS011;31237;45.586;13.782;2022-12-22T05:13:57;1.25;;;1.15;;
45490;SDS011;31237;45.586;13.782;2022-12-22T05:16:22;1.75;;;0.90;;
45490;SDS011;31237;45.586;13.782;2022-12-22T05:18:48;1.10;;;1.10;;
45490;SDS011;31237;45.586;13.782;2022-12-22T05:21:15;0.50;;;0.50;;
45490;SDS011;31237;45.586;13.782;2022-12-22T05:23:43;0.65;;;0.65;;
45490;SDS011;31237;45.586;13.782;2022-12-22T05:26:10;0.90;;;0.90;;
45490;SDS011;31237;45.586;13.782;2022-12-22T05:28:38;0.90;;;0.90;;
45490;SDS011;31237;45.586;13.782;2022-12-22T05:31:06;1.38;;;1.30;;
45490;SDS011;31237;45.586;13.782;2022-12-22T05:33:33;1.08;;;1.05;;
45490;SDS011;31237;45.586;13.782;2022-12-22T05:36:00;0.50;;;0.50;;
45490;SDS011;31237;45.586;13.782;2022-12-22T05:38:26;0.90;;;0.88;;
45490;SDS011;31237;45.586;13.782;2022-12-22T05:40:52;1.17;;;1.13;;
45490;SDS011;31237;45.586;13.782;2022-12-22T05:43:17;1.85;;;1.40;;
45490;SDS011;31237;45.586;13.782;2022-12-22T05:45:44;0.60;;;0.60;;
45490;SDS011;31237;45.586;13.782;2022-12-22T05:48:10;0.90;;;0.90;;
45490;SDS011;31237;45.586;13.782;2022-12-22T05:50:36;0.73;;;0.73;;
45490;SDS011;31237;45.586;13.782;2022-12-22T05:53:02;1.25;;;1.25;;
45490;SDS011;31237;45.586;13.782;2022-12-22T05:55:28;1.50;;;1.40;;
45490;SDS011;31237;45.586;13.782;2022-12-22T05:57:54;2.35;;;2.15;;
45490;SDS011;31237;45.586;13.782;2022-12-22T06:00:20;1.45;;;1.10;;
45490;SDS011;31237;45.586;13.782;2022-12-22T06:02:46;2.80;;;1.30;;
45490;SDS011;31237;45.586;13.782;2022-12-22T06:05:12;1.58;;;1.48;;
45490;SDS011;31237;45.586;13.782;2022-12-22T06:07:39;0.60;;;0.60;;
45490;SDS011;31237;45.586;13.782;2022-12-22T06:10:06;0.80;;;0.80;;
45490;SDS011;31237;45.586;13.782;2022-12-22T06:12:33;0.50;;;0.50;;
45490;SDS011;31237;45.586;13.782;2022-12-22T06:14:58;0.80;;;0.80;;
45490;SDS011;31237;45.586;13.782;2022-12-22T06:17:24;1.50;;;1.40;;
45490;SDS011;31237;45.586;13.782;2022-12-22T06:19:50;0.60;;;0.60;;
45490;SDS011;31237;45.586;13.782;2022-12-22T06:22:16;3.60;;;0.95;;
45490;SDS011;31237;45.586;13.782;2022-12-22T06:24:41;0.47;;;0.47;;
45490;SDS011;31237;45.586;13.782;2022-12-22T06:27:07;0.60;;;0.60;;
45490;SDS011;31237;45.586;13.782;2022-12-22T06:29:35;1.58;;;1.48;;
45490;SDS011;31237;45.586;13.782;2022-12-22T06:32:01;1.20;;;1.10;;
45490;SDS011;31237;45.586;13.782;2022-12-22T06:34:27;0.40;;;0.40;;
45490;SDS011;31237;45.586;13.782;2022-12-22T06:36:52;1.60;;;1.50;;
45490;SDS011;31237;45.586;13.782;2022-12-22T06:39:18;1.10;;;1.10;;
45490;SDS011;31237;45.586;13.782;2022-12-22T06:41:44;1.70;;;1.23;;
45490;SDS011;31237;45.586;13.782;2022-12-22T06:44:28;1.23;;;1.17;;
45490;SDS011;31237;45.586;13.782;2022-12-22T06:46:54;0.60;;;0.60;;
45490;SDS011;31237;45.586;13.782;2022-12-22T06:49:19;0.70;;;0.70;;
45490;SDS011;31237;45.586;13.782;2022-12-22T06:51:45;0.75;;;0.75;;
45490;SDS011;31237;45.586;13.782;2022-12-22T06:54:11;2.15;;;1.95;;
45490;SDS011;31237;45.586;13.782;2022-12-22T06:56:37;0.80;;;0.80;;
45490;SDS011;31237;45.586;13.782;2022-12-22T06:59:03;0.73;;;0.73;;
45490;SDS011;31237;45.586;13.782;2022-12-22T07:01:29;0.70;;;0.70;;
45490;SDS011;31237;45.586;13.782;2022-12-22T07:03:55;0.73;;;0.73;;
45490;SDS011;31237;45.586;13.782;2022-12-22T07:06:20;0.90;;;0.90;;
45490;SDS011;31237;45.586;13.782;2022-12-22T07:08:46;1.25;;;1.15;;
45490;SDS011;31237;45.586;13.782;2022-12-22T07:11:12;0.60;;;0.60;;
45490;SDS011;31237;45.586;13.782;2022-12-22T07:13:39;0.90;;;0.90;;
45490;SDS011;31237;45.586;13.782;2022-12-22T07:16:05;0.68;;;0.68;;
45490;SDS011;31237;45.586;13.782;2022-12-22T07:18:33;1.20;;;1.20;;
45490;SDS011;31237;45.586;13.782;2022-12-22T07:21:01;0.52;;;0.52;;
45490;SDS011;31237;45.586;13.782;2022-12-22T07:23:29;0.50;;;0.50;;
45490;SDS011;31237;45.586;13.782;2022-12-22T07:25:55;1.00;;;0.95;;
45490;SDS011;31237;45.586;13.782;2022-12-22T07:28:21;0.80;;;0.80;;
45490;SDS011;31237;45.586;13.782;2022-12-22T07:30:48;1.52;;;1.45;;
45490;SDS011;31237;45.586;13.782;2022-12-22T07:33:14;0.50;;;0.50;;
45490;SDS011;31237;45.586;13.782;2022-12-22T07:35:40;0.60;;;0.60;;
45490;SDS011;31237;45.586;13.782;2022-12-22T07:38:06;0.77;;;0.77;;
45490;SDS011;31237;45.586;13.782;2022-12-22T07:40:32;0.57;;;0.57;;
45490;SDS011;31237;45.586;13.782;2022-12-22T07:42:58;0.60;;;0.60;;
45490;SDS011;31237;45.586;13.782;2022-12-22T07:45:24;0.65;;;0.65;;
45490;SDS011;31237;45.586;13.782;2022-12-22T07:47:50;0.60;;;0.60;;
45490;SDS011;31237;45.586;13.782;2022-12-22T07:50:17;1.25;;;1.25;;
45490;SDS011;31237;45.586;13.782;2022-12-22T07:52:55;0.60;;;0.60;;
45490;SDS011;31237;45.586;13.782;2022-12-22T07:55:22;0.55;;;0.55;;
45490;SDS011;31237;45.586;13.782;2022-12-22T07:57:49;0.75;;;0.75;;
45490;SDS011;31237;45.586;13.782;2022-12-22T08:00:15;1.02;;;0.88;;
45490;SDS011;31237;45.586;13.782;2022-12-22T08:02:41;0.90;;;0.90;;
45490;SDS011;31237;45.586;13.782;2022-12-22T08:05:07;1.55;;;1.45;;
45490;SDS011;31237;45.586;13.782;2022-12-22T08:07:33;0.85;;;0.85;;
45490;SDS011;31237;45.586;13.782;2022-12-22T08:09:59;0.50;;;0.50;;
45490;SDS011;31237;45.586;13.782;2022-12-22T08:12:25;0.88;;;0.88;;
45490;SDS011;31237;45.586;13.782;2022-12-22T08:14:52;0.98;;;0.98;;
45490;SDS011;31237;45.586;13.782;2022-12-22T08:17:17;0.50;;;0.50;;
45490;SDS011;31237;45.586;13.782;2022-12-22T08:19:43;0.82;;;0.82;;
45490;SDS011;31237;45.586;13.782;2022-12-22T08:22:09;0.93;;;0.93;;
45490;SDS011;31237;45.586;13.782;2022-12-22T08:24:36;1.08;;;1.08;;
45490;SDS011;31237;45.586;13.782;2022-12-22T08:27:02;0.50;;;0.50;;
45490;SDS011;31237;45.586;13.782;2022-12-22T08:29:38;0.55;;;0.55;;
45490;SDS011;31237;45.586;13.782;2022-12-22T08:32:07;0.60;;;0.60;;
45490;SDS011;31237;45.586;13.782;2022-12-22T08:34:35;1.27;;;1.20;;
45490;SDS011;31237;45.586;13.782;2022-12-22T08:37:01;1.15;;;1.15;;
45490;SDS011;31237;45.586;13.782;2022-12-22T08:39:31;1.08;;;1.02;;
45490;SDS011;31237;45.586;13.782;2022-12-22T08:42:02;2.05;;;1.92;;
45490;SDS011;31237;45.586;13.782;2022-12-22T08:44:30;1.95;;;1.85;;
45490;SDS011;31237;45.586;13.782;2022-12-22T08:46:57;1.45;;;1.38;;
45490;SDS011;31237;45.586;13.782;2022-12-22T08:49:24;3.25;;;2.97;;
45490;SDS011;31237;45.586;13.782;2022-12-22T08:51:51;0.70;;;0.70;;
45490;SDS011;31237;45.586;13.782;2022-12-22T08:54:17;2.47;;;2.20;;
45490;SDS011;31237;45.586;13.782;2022-12-22T08:56:44;1.17;;;1.17;;
45490;SDS011;31237;45.586;13.782;2022-12-22T08:59:10;0.82;;;0.82;;
45490;SDS011;31237;45.586;13.782;2022-12-22T09:01:37;1.05;;;0.98;;
45490;SDS011;31237;45.586;13.782;2022-12-22T09:04:09;1.27;;;1.20;;
45490;SDS011;31237;45.586;13.782;2022-12-22T09:06:37;1.08;;;1.08;;
45490;SDS011;31237;45.586;13.782;2022-12-22T09:09:04;1.30;;;1.20;;
45490;SDS011;31237;45.586;13.782;2022-12-22T09:11:32;0.65;;;0.65;;
45490;SDS011;31237;45.586;13.782;2022-12-22T09:13:59;1.45;;;1.38;;
45490;SDS011;31237;45.586;13.782;2022-12-22T09:16:26;0.68;;;0.68;;
45490;SDS011;31237;45.586;13.782;2022-12-22T09:18:53;0.82;;;0.82;;
45490;SDS011;31237;45.586;13.782;2022-12-22T09:21:20;0.98;;;0.98;;
45490;SDS011;31237;45.586;13.782;2022-12-22T09:23:46;4.35;;;2.67;;
45490;SDS011;31237;45.586;13.782;2022-12-22T09:26:14;3.58;;;1.75;;
45490;SDS011;31237;45.586;13.782;2022-12-22T09:28:42;1.67;;;1.38;;
45490;SDS011;31237;45.586;13.782;2022-12-22T09:31:09;0.80;;;0.80;;
45490;SDS011;31237;45.586;13.782;2022-12-22T09:33:35;0.75;;;0.75;;
45490;SDS011;31237;45.586;13.782;2022-12-22T09:36:05;1.83;;;1.73;;
45490;SDS011;31237;45.586;13.782;2022-12-22T09:38:32;2.58;;;2.42;;
45490;SDS011;31237;45.586;13.782;2022-12-22T09:40:58;1.58;;;1.48;;
45490;SDS011;31237;45.586;13.782;2022-12-22T09:43:30;1.52;;;1.42;;
45490;SDS011;31237;45.586;13.782;2022-12-22T09:45:56;0.80;;;0.80;;
45490;SDS011;31237;45.586;13.782;2022-12-22T09:48:22;1.45;;;1.20;;
45490;SDS011;31237;45.586;13.782;2022-12-22T09:50:57;3.13;;;1.45;;
45490;SDS011;31237;45.586;13.782;2022-12-22T09:53:23;1.98;;;1.77;;
45490;SDS011;31237;45.586;13.782;2022-12-22T09:55:49;1.52;;;1.42;;
45490;SDS011;31237;45.586;13.782;2022-12-22T09:58:26;0.50;;;0.50;;
45490;SDS011;31237;45.586;13.782;2022-12-22T10:00:57;1.08;;;1.05;;
45490;SDS011;31237;45.586;13.782;2022-12-22T10:03:47;0.82;;;0.82;;
45490;SDS011;31237;45.586;13.782;2022-12-22T10:06:28;2.35;;;2.15;;
45490;SDS011;31237;45.586;13.782;2022-12-22T10:09:03;1.55;;;1.45;;
45490;SDS011;31237;45.586;13.782;2022-12-22T10:11:54;3.08;;;2.50;;
45490;SDS011;31237;45.586;13.782;2022-12-22T10:17:12;2.45;;;2.25;;
45490;SDS011;31237;45.586;13.782;2022-12-22T10:19:39;3.50;;;2.55;;
45490;SDS011;31237;45.586;13.782;2022-12-22T10:24:53;1.75;;;1.65;;
45490;SDS011;31237;45.586;13.782;2022-12-22T10:27:23;4.88;;;4.03;;
45490;SDS011;31237;45.586;13.782;2022-12-22T10:29:53;2.53;;;2.22;;
45490;SDS011;31237;45.586;13.782;2022-12-22T10:32:19;3.55;;;3.05;;
45490;SDS011;31237;45.586;13.782;2022-12-22T10:37:29;2.45;;;2.25;;
45490;SDS011;31237;45.586;13.782;2022-12-22T10:40:20;2.40;;;1.27;;
45490;SDS011;31237;45.586;13.782;2022-12-22T10:42:51;4.90;;;3.38;;
45490;SDS011;31237;45.586;13.782;2022-12-22T10:45:21;6.22;;;2.75;;
45490;SDS011;31237;45.586;13.782;2022-12-22T10:47:50;4.13;;;2.40;;
45490;SDS011;31237;45.586;13.782;2022-12-22T10:50:18;1.67;;;1.58;;
45490;SDS011;31237;45.586;13.782;2022-12-22T10:52:51;9.85;;;3.22;;
45490;SDS011;31237;45.586;13.782;2022-12-22T10:55:24;2.60;;;2.08;;
45490;SDS011;31237;45.586;13.782;2022-12-22T11:00:35;1.85;;;1.75;;
45490;SDS011;31237;45.586;13.782;2022-12-22T11:03:02;2.85;;;1.65;;
45490;SDS011;31237;45.586;13.782;2022-12-22T11:05:31;6.93;;;1.88;;
45490;SDS011;31237;45.586;13.782;2022-12-22T11:08:09;5.03;;;2.20;;
45490;SDS011;31237;45.586;13.782;2022-12-22T11:15:49;7.47;;;3.70;;
45490;SDS011;31237;45.586;13.782;2022-12-22T11:24:00;2.72;;;1.30;;
45490;SDS011;31237;45.586;13.782;2022-12-22T11:29:04;0.90;;;0.90;;
45490;SDS011;31237;45.586;13.782;2022-12-22T11:39:36;3.15;;;2.85;;
45490;SDS011;31237;45.586;13.782;2022-12-22T11:50:51;1.58;;;1.30;;
45490;SDS011;31237;45.586;13.782;2022-12-22T12:01:39;2.85;;;2.38;;
45490;SDS011;31237;45.586;13.782;2022-12-22T12:12:47;5.57;;;5.07;;
45490;SDS011;31237;45.586;13.782;2022-12-22T12:15:18;3.92;;;3.60;;
45490;SDS011;31237;45.586;13.782;2022-12-22T12:23:28;5.10;;;4.60;;
45490;SDS011;31237;45.586;13.782;2022-12-22T12:34:56;4.45;;;3.88;;
45490;SDS011;31237;45.586;13.782;2022-12-22T12:37:29;7.00;;;4.38;;
45490;SDS011;31237;45.586;13.782;2022-12-22T12:43:04;4.60;;;3.50;;
45490;SDS011;31237;45.586;13.782;2022-12-22T12:50:50;4.93;;;4.38;;
45490;SDS011;31237;45.586;13.782;2022-12-22T12:53:27;2.73;;;2.53;;
45490;SDS011;31237;45.586;13.782;2022-12-22T12:56:04;2.93;;;2.67;;
45490;SDS011;31237;45.586;13.782;2022-12-22T13:01:04;3.38;;;3.05;;
45490;SDS011;31237;45.586;13.782;2022-12-22T13:03:36;4.32;;;2.50;;
45490;SDS011;31237;45.586;13.782;2022-12-22T13:06:05;4.55;;;1.60;;
45490;SDS011;31237;45.586;13.782;2022-12-22T13:11:34;7.68;;;2.20;;
45490;SDS011;31237;45.586;13.782;2022-12-22T13:14:01;1.25;;;1.15;;
45490;SDS011;31237;45.586;13.782;2022-12-22T13:16:32;3.40;;;2.10;;
45490;SDS011;31237;45.586;13.782;2022-12-22T13:19:01;1.58;;;1.48;;
45490;SDS011;31237;45.586;13.782;2022-12-22T13:21:36;2.15;;;2.05;;
45490;SDS011;31237;45.586;13.782;2022-12-22T13:24:09;2.25;;;2.10;;
45490;SDS011;31237;45.586;13.782;2022-12-22T13:26:41;1.08;;;1.05;;
45490;SDS011;31237;45.586;13.782;2022-12-22T13:31:51;4.55;;;2.65;;
45490;SDS011;31237;45.586;13.782;2022-12-22T13:40:08;1.08;;;0.98;;
45490;SDS011;31237;45.586;13.782;2022-12-22T13:42:36;1.05;;;1.05;;
45490;SDS011;31237;45.586;13.782;2022-12-22T13:45:11;3.95;;;1.73;;
45490;SDS011;31237;45.586;13.782;2022-12-22T13:47:42;2.83;;;2.60;;
45490;SDS011;31237;45.586;13.782;2022-12-22T13:50:22;2.55;;;2.35;;
45490;SDS011;31237;45.586;13.782;2022-12-22T13:52:51;3.15;;;2.85;;
45490;SDS011;31237;45.586;13.782;2022-12-22T13:55:20;5.60;;;2.83;;
45490;SDS011;31237;45.586;13.782;2022-12-22T13:57:51;4.45;;;2.70;;
45490;SDS011;31237;45.586;13.782;2022-12-22T14:00:19;4.32;;;3.95;;
45490;SDS011;31237;45.586;13.782;2022-12-22T14:02:47;5.22;;;4.40;;
45490;SDS011;31237;45.586;13.782;2022-12-22T14:05:14;3.97;;;3.45;;
45490;SDS011;31237;45.586;13.782;2022-12-22T14:08:03;3.22;;;2.75;;
45490;SDS011;31237;45.586;13.782;2022-12-22T14:10:31;2.72;;;2.53;;
45490;SDS011;31237;45.586;13.782;2022-12-22T14:13:09;2.42;;;2.22;;
45490;SDS011;31237;45.586;13.782;2022-12-22T14:15:42;1.38;;;1.27;;
45490;SDS011;31237;45.586;13.782;2022-12-22T14:18:16;6.95;;;3.38;;
45490;SDS011;31237;45.586;13.782;2022-12-22T14:20:45;1.38;;;1.27;;
45490;SDS011;31237;45.586;13.782;2022-12-22T14:23:16;2.65;;;2.45;;
45490;SDS011;31237;45.586;13.782;2022-12-22T14:25:49;2.08;;;1.80;;
45490;SDS011;31237;45.586;13.782;2022-12-22T14:28:26;2.47;;;2.28;;
45490;SDS011;31237;45.586;13.782;2022-12-22T14:31:14;2.40;;;2.10;;
45490;SDS011;31237;45.586;13.782;2022-12-22T14:33:49;3.40;;;2.65;;
45490;SDS011;31237;45.586;13.782;2022-12-22T14:36:23;2.33;;;2.17;;
45490;SDS011;31237;45.586;13.782;2022-12-22T14:38:52;5.60;;;4.18;;
45490;SDS011;31237;45.586;13.782;2022-12-22T14:41:23;3.38;;;2.08;;
45490;SDS011;31237;45.586;13.782;2022-12-22T14:44:17;2.45;;;2.22;;
45490;SDS011;31237;45.586;13.782;2022-12-22T14:49:42;3.08;;;2.85;;
45490;SDS011;31237;45.586;13.782;2022-12-22T14:55:03;5.97;;;2.53;;
45490;SDS011;31237;45.586;13.782;2022-12-22T14:57:44;4.05;;;3.63;;
45490;SDS011;31237;45.586;13.782;2022-12-22T15:02:49;5.53;;;5.07;;
45490;SDS011;31237;45.586;13.782;2022-12-22T15:05:30;10.40;;;5.78;;
45490;SDS011;31237;45.586;13.782;2022-12-22T15:08:02;10.60;;;6.25;;
45490;SDS011;31237;45.586;13.782;2022-12-22T15:10:37;5.35;;;4.35;;
45490;SDS011;31237;45.586;13.782;2022-12-22T15:13:09;6.18;;;5.60;;
45490;SDS011;31237;45.586;13.782;2022-12-22T15:15:48;3.17;;;2.97;;
45490;SDS011;31237;45.586;13.782;2022-12-22T15:18:17;6.57;;;4.10;;
45490;SDS011;31237;45.586;13.782;2022-12-22T15:20:49;15.50;;;6.63;;
45490;SDS011;31237;45.586;13.782;2022-12-22T15:23:16;3.00;;;2.80;;
45490;SDS011;31237;45.586;13.782;2022-12-22T15:25:41;3.42;;;2.83;;
45490;SDS011;31237;45.586;13.782;2022-12-22T15:28:07;8.80;;;6.38;;
45490;SDS011;31237;45.586;13.782;2022-12-22T15:30:33;8.55;;;5.68;;
45490;SDS011;31237;45.586;13.782;2022-12-22T15:33:09;8.48;;;6.07;;
45490;SDS011;31237;45.586;13.782;2022-12-22T15:35:41;4.90;;;3.90;;
45490;SDS011;31237;45.586;13.782;2022-12-22T15:38:11;3.92;;;3.60;;
45490;SDS011;31237;45.586;13.782;2022-12-22T15:40:42;11.10;;;5.80;;
45490;SDS011;31237;45.586;13.782;2022-12-22T15:43:08;4.90;;;4.10;;
45490;SDS011;31237;45.586;13.782;2022-12-22T15:45:34;9.00;;;3.13;;
45490;SDS011;31237;45.586;13.782;2022-12-22T15:48:02;8.48;;;3.38;;
45490;SDS011;31237;45.586;13.782;2022-12-22T15:50:39;6.95;;;5.28;;
45490;SDS011;31237;45.586;13.782;2022-12-22T15:53:06;5.25;;;4.22;;
45490;SDS011;31237;45.586;13.782;2022-12-22T15:55:40;5.22;;;4.45;;
45490;SDS011;31237;45.586;13.782;2022-12-22T15:58:09;2.88;;;2.67;;
45490;SDS011;31237;45.586;13.782;2022-12-22T16:00:38;3.80;;;3.50;;
45490;SDS011;31237;45.586;13.782;2022-12-22T16:03:04;7.85;;;4.80;;
45490;SDS011;31237;45.586;13.782;2022-12-22T16:05:30;4.53;;;3.75;;
45490;SDS011;31237;45.586;13.782;2022-12-22T16:07:59;3.63;;;2.53;;
45490;SDS011;31237;45.586;13.782;2022-12-22T16:10:27;5.82;;;3.20;;
45490;SDS011;31237;45.586;13.782;2022-12-22T16:12:54;1.40;;;1.33;;
45490;SDS011;31237;45.586;13.782;2022-12-22T16:15:25;2.20;;;2.05;;
45490;SDS011;31237;45.586;13.782;2022-12-22T16:17:52;5.55;;;3.65;;
45490;SDS011;31237;45.586;13.782;2022-12-22T16:20:19;2.20;;;1.88;;
45490;SDS011;31237;45.586;13.782;2022-12-22T16:22:45;0.98;;;0.98;;
45490;SDS011;31237;45.586;13.782;2022-12-22T16:25:14;3.65;;;3.35;;
45490;SDS011;31237;45.586;13.782;2022-12-22T16:27:42;1.35;;;1.25;;
45490;SDS011;31237;45.586;13.782;2022-12-22T16:30:32;6.60;;;2.55;;
45490;SDS011;31237;45.586;13.782;2022-12-22T16:32:58;3.03;;;2.65;;
45490;SDS011;31237;45.586;13.782;2022-12-22T16:35:26;1.58;;;1.48;;
45490;SDS011;31237;45.586;13.782;2022-12-22T16:37:54;1.48;;;1.33;;
45490;SDS011;31237;45.586;13.782;2022-12-22T16:40:22;4.63;;;1.42;;
45490;SDS011;31237;45.586;13.782;2022-12-22T16:42:49;1.77;;;1.67;;
45490;SDS011;31237;45.586;13.782;2022-12-22T16:45:26;2.38;;;2.17;;
45490;SDS011;31237;45.586;13.782;2022-12-22T16:47:53;1.20;;;1.13;;
45490;SDS011;31237;45.586;13.782;2022-12-22T16:50:22;1.63;;;1.52;;
45490;SDS011;31237;45.586;13.782;2022-12-22T16:52:56;0.75;;;0.75;;
45490;SDS011;31237;45.586;13.782;2022-12-22T16:55:24;1.08;;;1.08;;
45490;SDS011;31237;45.586;13.782;2022-12-22T16:57:50;0.47;;;0.47;;
45490;SDS011;31237;45.586;13.782;2022-12-22T17:00:23;1.10;;;1.08;;
45490;SDS011;31237;45.586;13.782;2022-12-22T17:02:55;0.60;;;0.60;;
45490;SDS011;31237;45.586;13.782;2022-12-22T17:05:32;0.93;;;0.93;;
45490;SDS011;31237;45.586;13.782;2022-12-22T17:08:00;0.75;;;0.75;;
45490;SDS011;31237;45.586;13.782;2022-12-22T17:10:29;2.67;;;1.35;;
45490;SDS011;31237;45.586;13.782;2022-12-22T17:12:56;2.47;;;1.20;;
45490;SDS011;31237;45.586;13.782;2022-12-22T17:15:23;0.60;;;0.60;;
45490;SDS011;31237;45.586;13.782;2022-12-22T17:17:49;0.73;;;0.73;;
45490;SDS011;31237;45.586;13.782;2022-12-22T17:20:16;2.17;;;1.38;;
45490;SDS011;31237;45.586;13.782;2022-12-22T17:22:46;3.05;;;1.27;;
45490;SDS011;31237;45.586;13.782;2022-12-22T17:25:23;2.08;;;1.85;;
45490;SDS011;31237;45.586;13.782;2022-12-22T17:27:51;0.80;;;0.80;;
45490;SDS011;31237;45.586;13.782;2022-12-22T17:30:21;2.45;;;1.40;;
45490;SDS011;31237;45.586;13.782;2022-12-22T17:32:49;4.13;;;2.08;;
45490;SDS011;31237;45.586;13.782;2022-12-22T17:35:18;1.50;;;1.40;;
45490;SDS011;31237;45.586;13.782;2022-12-22T17:37:45;1.48;;;1.38;;
45490;SDS011;31237;45.586;13.782;2022-12-22T17:40:14;1.73;;;1.63;;